Inglis, Florida
Current Conditions -  °F | °C
As of 8:55 PM on Saturday 22 Nov 2014 (Local Time) from KCGC Reporting Station
Overcast Overcast  
Wind Chill: 68°   Ceiling: 1400
Heat Index: 68°   Visibility: 10mi
Dew Point: 63°   Wind: 13mph
Humidity: 83%   Direction: 100°E
Pressure: 30.11"   Gusts: 20mph
Location:  29.03°N, 82.67°W
Report Text: KCGC 230155Z AUTO 10011G17KT 10SM BKN014 BKN021 OVC110 20/17 A3011 RMK AO2
Loading
Personal Weather Stations






























Interactive Weather Map New forecast layout! Learn more

10-Day Weather Forecast

Advertisements
Track Severe Weather on mobile